Glen, Mississippi
Current Conditions -  °F | °C
As of 7:35 AM on Sunday 23 Nov 2014 (Local Time) from KCRX Reporting Station
Haze Haze  
Wind Chill: 59°   Ceiling: 800
Heat Index: 59°   Visibility: 4mi
Dew Point: 55°   Wind: 10mph
Humidity: 88%   Direction: 140°SE
Pressure: 29.78"   Gusts: NA
Location:  34.84°N, 88.42°W
Report Text: KCRX 231335Z AUTO 14009KT 4SM BR OVC008 15/13 A2978 RMK AO2
Loading
Personal Weather Stations






























Interactive Weather Map New forecast layout! Learn more

10-Day Weather Forecast

Advertisements
Track Severe Weather on mobile